Time;durP1;ratioP1;P1;durP2;ratioP2;P2;SDS_P1;SDS_P2;PMS_P1;PMS_P2;Temp;Humidity;BMP_temperature;BMP_pressure;BME280_temperature;BME280_humidity;BME280_pressure;Samples;Min_cycle;Max_cycle;Signal;HPM_P1;HPM_P2
2023/01/17 00:02:19;;;;;;;4.00;1.55;;;27.90;99.90;;;;;;4968120;28;20167;-68
2023/01/17 00:10:20;;;;;;;4.28;1.52;;;30.10;99.30;;;;;;4965994;28;20568;-70
2023/01/17 00:12:52;;;;;;;6.70;2.30;;;30.20;99.90;;;;;;4967638;28;20023;-69
2023/01/17 00:15:22;;;;;;;5.35;1.90;;;30.20;99.90;;;;;;4969966;28;20658;-67
2023/01/17 00:17:49;;;;;;;5.00;1.20;;;29.90;99.40;;;;;;4967115;28;20494;-67
2023/01/17 00:26:15;;;;;;;4.25;1.55;;;29.40;99.00;;;;;;5029015;28;20060;-63
2023/01/17 01:35:50;;;;;;;4.32;1.70;;;32.90;94.40;;;;;;5027655;28;20569;-69
2023/01/17 01:38:18;;;;;;;2.10;0.93;;;33.00;94.60;;;;;;5025772;28;20030;-62
2023/01/17 01:40:48;;;;;;;3.95;1.30;;;33.30;93.60;;;;;;5025659;28;20052;-69
2023/01/17 01:43:18;;;;;;;4.35;1.35;;;33.30;93.60;;;;;;5025014;28;20079;-61
2023/01/17 01:45:54;;;;;;;3.60;1.67;;;33.00;94.20;;;;;;5026088;28;20022;-69
2023/01/17 01:48:36;;;;;;;4.22;1.20;;;33.40;94.10;;;;;;5023657;28;20531;-69
2023/01/17 01:51:34;;;;;;;3.85;1.67;;;33.20;92.90;;;;;;5027358;28;20018;-61
2023/01/17 01:54:07;;;;;;;3.03;1.83;;;33.60;93.70;;;;;;5022505;28;20452;-69
2023/01/17 01:56:34;;;;;;;4.20;1.30;;;34.00;94.20;;;;;;5025582;28;20472;-62
2023/01/17 01:59:08;;;;;;;2.83;1.00;;;34.50;92.30;;;;;;5024692;28;20058;-61
2023/01/17 02:01:36;;;;;;;3.65;1.10;;;34.30;91.50;;;;;;5027600;28;20040;-61
2023/01/17 02:04:08;;;;;;;2.47;1.10;;;33.90;92.40;;;;;;5022850;28;20033;-62
2023/01/17 02:06:57;;;;;;;4.63;1.08;;;33.70;93.60;;;;;;5026847;28;20100;-69
2023/01/17 02:09:24;;;;;;;2.67;1.05;;;33.00;94.20;;;;;;5025727;28;20495;-62
2023/01/17 02:11:51;;;;;;;2.30;1.00;;;32.30;93.40;;;;;;5027521;28;20306;-62
2023/01/17 02:14:20;;;;;;;2.53;0.85;;;32.00;93.80;;;;;;5024726;28;20369;-63
2023/01/17 02:17:11;;;;;;;2.28;1.10;;;31.90;93.80;;;;;;5025271;28;20164;-63
2023/01/17 02:20:14;;;;;;;3.78;1.20;;;31.80;93.70;;;;;;5026619;28;20026;-61
2023/01/17 02:23:04;;;;;;;3.50;1.30;;;31.50;94.30;;;;;;5025182;28;20472;-62
2023/01/17 02:25:43;;;;;;;4.72;1.38;;;30.90;95.10;;;;;;5011806;28;21356;-62
2023/01/17 02:28:44;;;;;;;2.58;1.27;;;29.90;96.00;;;;;;5024759;28;20109;-62
2023/01/17 02:31:27;;;;;;;3.20;1.05;;;29.70;96.40;;;;;;5026201;28;20522;-64
2023/01/17 02:34:23;;;;;;;4.38;1.27;;;29.80;97.10;;;;;;5024896;28;20025;-69
2023/01/17 02:37:09;;;;;;;3.58;1.23;;;30.20;96.20;;;;;;5027296;28;20021;-70
2023/01/17 02:40:01;;;;;;;3.83;1.10;;;30.80;96.30;;;;;;5028940;28;20550;-69
2023/01/17 02:42:31;;;;;;;;;;;31.30;96.80;;;;;;5021139;28;20045;-62
2023/01/17 02:44:58;;;;;;;5.72;1.50;;;31.40;95.90;;;;;;5029614;28;19909;-62
2023/01/17 02:47:30;;;;;;;3.83;1.20;;;32.20;94.80;;;;;;4466371;28;10001764;-61
2023/01/17 02:50:06;;;;;;;2.28;0.90;;;33.00;94.30;;;;;;5026941;28;20048;-67
2023/01/17 02:52:40;;;;;;;2.67;1.20;;;32.80;94.00;;;;;;5027652;28;20033;-67
2023/01/17 02:55:12;;;;;;;2.25;1.08;;;32.40;94.80;;;;;;5026097;28;20365;-72
2023/01/17 02:58:20;;;;;;;4.40;1.02;;;32.40;93.20;;;;;;5019929;28;20028;-70
2023/01/17 03:01:08;;;;;;;3.63;1.55;;;31.90;93.80;;;;;;5027032;28;20044;-66
2023/01/17 03:03:54;;;;;;;3.72;1.17;;;31.50;94.60;;;;;;5023234;28;20033;-70
2023/01/17 03:06:24;;;;;;;4.05;1.10;;;31.10;95.30;;;;;;5023775;28;20232;-67
2023/01/17 03:08:52;;;;;;;4.30;1.67;;;30.90;94.70;;;;;;5024228;28;20025;-69
2023/01/17 03:11:19;;;;;;;2.83;1.00;;;30.40;95.90;;;;;;5030386;28;20036;-60
2023/01/17 03:13:46;;;;;;;2.17;0.90;;;30.10;96.20;;;;;;5029092;28;20052;-65
2023/01/17 03:16:26;;;;;;;3.85;1.50;;;30.10;96.40;;;;;;5034375;28;20025;-66
2023/01/17 03:18:53;;;;;;;1.77;1.23;;;30.60;96.60;;;;;;5025902;28;20124;-65
2023/01/17 03:21:21;;;;;;;2.85;0.98;;;31.50;94.90;;;;;;5029674;28;20821;-71
2023/01/17 03:23:48;;;;;;;5.28;1.20;;;32.20;94.80;;;;;;5027667;28;20483;-63
2023/01/17 03:26:15;;;;;;;3.30;1.00;;;32.80;93.90;;;;;;5025232;28;20075;-62
2023/01/17 03:28:42;;;;;;;4.43;1.10;;;33.50;94.00;;;;;;5027046;28;20029;-62
2023/01/17 03:31:13;;;;;;;4.32;0.93;;;33.70;93.90;;;;;;5031382;28;20045;-65
2023/01/17 03:33:40;;;;;;;5.00;0.93;;;34.50;93.30;;;;;;5032941;28;20542;-66
2023/01/17 03:36:07;;;;;;;4.13;1.10;;;35.10;91.80;;;;;;5028050;28;20025;-66
2023/01/17 03:38:36;;;;;;;3.45;1.25;;;34.70;91.50;;;;;;5030927;28;20033;-69
2023/01/17 03:41:03;;;;;;;3.45;1.25;;;34.90;92.60;;;;;;5030201;28;20431;-67
2023/01/17 03:43:30;;;;;;;4.18;1.20;;;34.90;92.80;;;;;;5031795;28;20037;-64
2023/01/17 03:46:06;;;;;;;3.88;1.20;;;35.00;91.80;;;;;;5029146;28;20025;-62
2023/01/17 03:48:33;;;;;;;2.22;1.05;;;35.20;92.50;;;;;;5033084;28;20022;-62
2023/01/17 03:51:00;;;;;;;3.60;0.90;;;35.50;90.20;;;;;;5026947;28;20029;-67
2023/01/17 03:53:27;;;;;;;4.47;0.90;;;35.40;90.20;;;;;;5027263;28;20021;-61
2023/01/17 03:55:57;;;;;;;3.00;1.40;;;35.40;91.00;;;;;;5025965;28;20026;-62
2023/01/17 03:58:24;;;;;;;3.03;1.02;;;35.80;89.70;;;;;;5025965;28;20025;-63
2023/01/17 04:00:51;;;;;;;3.15;0.82;;;35.50;90.10;;;;;;5026700;28;20064;-61
2023/01/17 04:03:17;;;;;;;3.22;0.95;;;34.80;90.90;;;;;;5035886;28;20116;-63
2023/01/17 04:05:44;;;;;;;2.80;0.95;;;34.90;92.10;;;;;;5027882;28;20033;-62
2023/01/17 04:08:11;;;;;;;2.30;0.70;;;35.90;91.20;;;;;;5025307;28;20026;-60
2023/01/17 04:10:38;;;;;;;3.38;1.48;;;36.20;88.80;;;;;;5024976;28;20025;-60
2023/01/17 04:13:05;;;;;;;4.70;1.08;;;36.10;89.50;;;;;;5027081;28;20033;-61
2023/01/17 04:15:33;;;;;;;3.30;1.27;;;36.10;89.20;;;;;;5027575;28;20040;-63
2023/01/17 04:18:00;;;;;;;2.63;0.90;;;35.30;90.50;;;;;;5030678;28;20033;-62
2023/01/17 04:20:30;;;;;;;3.80;1.25;;;34.90;91.00;;;;;;5032757;28;20571;-63
2023/01/17 04:22:57;;;;;;;3.70;1.30;;;34.90;90.70;;;;;;5033607;28;20041;-60
2023/01/17 04:25:24;;;;;;;1.20;0.60;;;34.50;90.70;;;;;;5034222;28;20030;-62
2023/01/17 04:27:54;;;;;;;2.22;0.82;;;34.50;90.50;;;;;;5037043;28;20379;-62
2023/01/17 04:30:21;;;;;;;2.33;0.80;;;34.50;90.30;;;;;;5030393;28;20124;-61
2023/01/17 04:32:48;;;;;;;3.20;1.23;;;34.40;90.90;;;;;;5036578;28;20087;-62
2023/01/17 04:35:15;;;;;;;2.67;1.08;;;34.80;91.10;;;;;;5033998;28;20100;-61
2023/01/17 04:37:42;;;;;;;3.42;1.10;;;35.90;90.30;;;;;;5033035;28;20473;-63
2023/01/17 04:40:10;;;;;;;3.08;0.95;;;37.10;87.90;;;;;;5038164;28;20419;-62
2023/01/17 04:42:38;;;;;;;2.53;1.13;;;36.80;85.80;;;;;;5026104;28;20025;-63
2023/01/17 04:45:06;;;;;;;1.67;0.85;;;35.70;87.80;;;;;;5027494;28;20146;-63
2023/01/17 04:47:36;;;;;;;2.10;0.85;;;36.20;87.40;;;;;;5031052;28;20418;-63
2023/01/17 04:50:03;;;;;;;2.33;0.95;;;36.40;87.90;;;;;;5034375;28;20361;-64
2023/01/17 04:52:30;;;;;;;2.20;0.93;;;36.70;86.30;;;;;;5032194;28;20025;-63
2023/01/17 04:54:56;;;;;;;3.80;0.80;;;35.80;88.90;;;;;;5032734;28;20499;-60
2023/01/17 04:57:24;;;;;;;2.80;0.70;;;34.90;89.20;;;;;;5026933;28;21166;-62
2023/01/17 04:59:52;;;;;;;1.63;0.90;;;34.70;88.70;;;;;;5028058;28;20025;-61
2023/01/17 05:02:19;;;;;;;4.50;1.10;;;34.10;90.10;;;;;;5026355;28;20096;-60
2023/01/17 05:04:52;;;;;;;2.60;0.95;;;33.80;89.50;;;;;;5026963;28;20079;-60
2023/01/17 05:07:19;;;;;;;2.63;0.93;;;33.70;90.20;;;;;;5026066;28;20075;-63
2023/01/17 05:09:48;;;;;;;2.00;0.70;;;34.80;88.50;;;;;;5025580;28;20025;-61
2023/01/17 05:12:15;;;;;;;3.63;1.20;;;34.70;88.80;;;;;;5026095;28;20049;-68
2023/01/17 05:14:42;;;;;;;3.95;0.85;;;34.80;88.40;;;;;;5028755;28;20029;-66
2023/01/17 05:17:10;;;;;;;2.17;1.00;;;35.30;88.70;;;;;;5026819;28;20030;-64
2023/01/17 05:19:37;;;;;;;3.47;1.08;;;35.70;90.10;;;;;;5026478;28;20028;-64
2023/01/17 05:22:13;;;;;;;2.58;0.85;;;36.10;86.10;;;;;;5022304;28;20416;-63
2023/01/17 05:24:42;;;;;;;3.03;0.73;;;36.20;86.90;;;;;;5021772;28;20171;-60
2023/01/17 05:27:10;;;;;;;4.07;1.00;;;35.20;86.40;;;;;;5022435;28;20412;-64
2023/01/17 05:29:37;;;;;;;7.22;4.30;;;34.30;87.90;;;;;;5024349;28;20480;-64
2023/01/17 05:32:04;;;;;;;3.78;1.70;;;33.70;90.30;;;;;;5021862;28;20041;-63
2023/01/17 05:34:33;;;;;;;3.03;1.23;;;33.50;90.20;;;;;;5019958;28;20078;-63
2023/01/17 05:36:59;;;;;;;3.35;1.17;;;33.20;90.40;;;;;;5020683;28;20033;-63
2023/01/17 05:39:27;;;;;;;1.80;1.08;;;33.20;90.20;;;;;;5021247;28;20029;-65
2023/01/17 05:41:53;;;;;;;2.25;1.30;;;33.70;89.60;;;;;;5020766;28;20025;-65
2023/01/17 05:44:20;;;;;;;2.35;1.10;;;34.60;90.20;;;;;;5022706;28;20087;-64
2023/01/17 05:46:47;;;;;;;2.80;1.50;;;35.20;89.70;;;;;;5024779;28;20462;-63
2023/01/17 05:49:14;;;;;;;3.45;1.30;;;35.50;88.40;;;;;;5021314;28;20029;-67
2023/01/17 05:51:41;;;;;;;1.90;0.82;;;35.70;87.90;;;;;;5021860;28;20504;-62
2023/01/17 05:54:08;;;;;;;1.90;1.10;;;36.40;86.90;;;;;;5022793;28;20466;-67
2023/01/17 05:56:35;;;;;;;4.45;2.90;;;36.80;86.10;;;;;;5016126;28;20053;-63
2023/01/17 05:59:02;;;;;;;2.28;1.30;;;37.20;85.60;;;;;;5013837;28;20025;-67
2023/01/17 06:01:29;;;;;;;2.45;1.05;;;37.30;85.60;;;;;;5020439;28;20017;-64
2023/01/17 06:03:56;;;;;;;3.78;1.25;;;37.00;84.80;;;;;;5022798;28;20033;-61
2023/01/17 06:06:22;;;;;;;2.58;1.10;;;37.20;82.90;;;;;;5021175;28;20087;-61
2023/01/17 06:08:49;;;;;;;2.78;1.30;;;37.20;82.90;;;;;;5020041;28;20250;-64
2023/01/17 06:11:17;;;;;;;2.85;1.20;;;37.80;82.10;;;;;;5019872;28;20021;-62
2023/01/17 06:13:44;;;;;;;3.75;1.33;;;37.30;83.80;;;;;;5023115;28;20025;-66
2023/01/17 06:16:11;;;;;;;4.75;1.15;;;37.50;81.80;;;;;;5020164;28;20025;-63
2023/01/17 06:18:38;;;;;;;2.22;0.90;;;37.30;82.20;;;;;;5019635;28;20084;-63
2023/01/17 06:21:05;;;;;;;3.03;1.13;;;37.20;83.10;;;;;;5016250;28;20041;-61
2023/01/17 06:23:32;;;;;;;2.92;1.05;;;37.20;82.50;;;;;;5019683;28;20041;-62
2023/01/17 06:26:03;;;;;;;3.38;0.95;;;37.60;81.40;;;;;;5015426;28;20021;-65
2023/01/17 06:28:30;;;;;;;2.87;1.03;;;37.20;82.50;;;;;;5022596;28;20021;-63
2023/01/17 06:30:58;;;;;;;3.90;1.30;;;37.30;82.10;;;;;;5020124;28;20356;-65
2023/01/17 06:33:25;;;;;;;2.03;1.00;;;37.60;80.60;;;;;;5026008;28;20080;-63
2023/01/17 06:35:52;;;;;;;4.28;1.20;;;38.10;81.20;;;;;;5026029;28;20087;-66
2023/01/17 06:38:20;;;;;;;1.95;1.00;;;38.00;80.00;;;;;;5020090;28;20033;-67
2023/01/17 06:40:47;;;;;;;2.33;1.30;;;38.10;80.10;;;;;;5020121;28;20483;-62
2023/01/17 06:43:14;;;;;;;3.35;1.40;;;38.80;80.40;;;;;;5016012;28;20118;-61
2023/01/17 06:45:41;;;;;;;2.97;1.45;;;38.70;79.00;;;;;;5021113;28;20499;-61
2023/01/17 06:48:08;;;;;;;3.83;1.10;;;39.10;78.30;;;;;;5020387;28;20116;-65
2023/01/17 06:50:35;;;;;;;3.17;1.02;;;38.70;78.70;;;;;;5024251;28;20030;-62
2023/01/17 06:53:05;;;;;;;3.63;1.40;;;38.90;79.80;;;;;;5020136;28;20041;-65
2023/01/17 06:55:33;;;;;;;3.80;1.25;;;39.10;78.10;;;;;;5020864;28;20443;-61
2023/01/17 06:58:01;;;;;;;2.67;1.20;;;39.20;77.90;;;;;;5021917;28;20029;-63
2023/01/17 07:00:29;;;;;;;2.80;1.08;;;39.60;77.80;;;;;;5025131;28;20177;-62
2023/01/17 07:02:56;;;;;;;4.45;1.63;;;39.30;77.30;;;;;;5021472;28;20072;-62
2023/01/17 07:05:24;;;;;;;4.63;1.42;;;39.70;76.20;;;;;;5022733;28;20079;-62
2023/01/17 07:07:51;;;;;;;2.95;1.35;;;40.00;76.20;;;;;;5025116;28;20453;-66
2023/01/17 07:10:18;;;;;;;3.83;1.55;;;39.90;74.90;;;;;;5023248;28;20029;-65
2023/01/17 07:12:46;;;;;;;2.47;1.05;;;40.20;75.00;;;;;;5019368;28;20029;-66
2023/01/17 07:15:13;;;;;;;2.80;1.08;;;39.40;75.70;;;;;;5021978;28;20503;-65
2023/01/17 07:17:40;;;;;;;2.30;0.95;;;39.20;77.20;;;;;;5020584;28;20034;-63
2023/01/17 07:20:07;;;;;;;2.22;1.17;;;39.40;76.10;;;;;;5019499;28;20387;-66
2023/01/17 07:22:36;;;;;;;2.47;0.90;;;39.70;76.50;;;;;;5017481;28;20344;-61
2023/01/17 07:25:03;;;;;;;2.70;1.20;;;39.70;75.60;;;;;;5019085;28;20029;-62
2023/01/17 07:27:32;;;;;;;3.25;1.17;;;39.60;75.50;;;;;;5023216;28;20293;-62
2023/01/17 07:29:59;;;;;;;2.50;1.10;;;39.60;75.90;;;;;;5023983;28;20167;-63
2023/01/17 07:32:26;;;;;;;2.00;1.05;;;38.90;75.80;;;;;;5024445;28;20025;-70
2023/01/17 07:34:56;;;;;;;4.38;1.80;;;38.60;75.50;;;;;;5022864;28;20307;-62
2023/01/17 07:37:24;;;;;;;2.95;1.38;;;37.80;77.20;;;;;;5023959;28;20512;-63
2023/01/17 07:39:52;;;;;;;2.13;0.93;;;38.00;77.60;;;;;;5021522;28;20408;-62
2023/01/17 07:42:19;;;;;;;3.58;1.73;;;38.10;77.30;;;;;;5023286;28;20036;-63
2023/01/17 07:44:46;;;;;;;4.15;1.48;;;38.30;77.20;;;;;;5024543;28;20111;-63
2023/01/17 07:47:13;;;;;;;3.58;1.35;;;38.40;77.00;;;;;;5023822;28;20488;-67
2023/01/17 07:49:40;;;;;;;4.50;1.17;;;38.40;75.80;;;;;;5023752;28;20586;-64
2023/01/17 07:52:07;;;;;;;3.92;2.03;;;38.10;76.20;;;;;;5005863;28;20152;-66
2023/01/17 07:54:34;;;;;;;4.47;1.98;;;37.70;76.80;;;;;;5008508;28;20136;-63
2023/01/17 07:57:02;;;;;;;2.85;1.00;;;37.50;75.60;;;;;;5005476;28;20025;-67
2023/01/17 07:59:29;;;;;;;3.17;1.17;;;37.40;76.80;;;;;;4999685;28;20040;-61
2023/01/17 08:01:56;;;;;;;2.85;0.98;;;37.20;77.00;;;;;;4995297;28;20313;-63
2023/01/17 08:04:25;;;;;;;3.80;1.23;;;37.00;76.80;;;;;;4999811;28;20030;-62
2023/01/17 08:06:53;;;;;;;1.63;0.70;;;36.90;77.40;;;;;;5001850;28;20489;-65
2023/01/17 08:09:20;;;;;;;1.88;0.88;;;36.50;77.00;;;;;;5001463;28;20047;-64
2023/01/17 08:11:47;;;;;;;2.10;0.98;;;36.20;78.20;;;;;;5003604;28;20026;-67
2023/01/17 08:14:14;;;;;;;3.08;1.25;;;35.60;77.00;;;;;;4999725;28;20037;-63
2023/01/17 08:16:41;;;;;;;1.95;1.10;;;35.10;77.20;;;;;;5002318;28;20140;-63
2023/01/17 08:19:09;;;;;;;2.17;0.90;;;35.10;77.80;;;;;;5001845;28;20093;-62
2023/01/17 08:21:36;;;;;;;3.13;0.73;;;35.40;77.20;;;;;;5001045;28;20030;-63
2023/01/17 08:24:03;;;;;;;2.90;0.93;;;34.90;77.60;;;;;;5003775;28;20084;-64
2023/01/17 08:26:30;;;;;;;2.38;0.80;;;34.50;78.20;;;;;;5004838;28;20132;-64
2023/01/17 08:29:00;;;;;;;2.33;1.15;;;34.20;78.70;;;;;;5003306;28;20033;-62
2023/01/17 08:31:35;;;;;;;2.92;1.00;;;34.50;78.60;;;;;;5000858;28;20046;-64
2023/01/17 08:34:02;;;;;;;1.55;0.77;;;34.00;79.50;;;;;;4992880;28;20382;-62
2023/01/17 08:36:30;;;;;;;1.48;0.88;;;33.80;79.70;;;;;;5000335;28;20030;-63
2023/01/17 08:38:57;;;;;;;1.88;0.98;;;32.80;81.20;;;;;;4996260;28;20029;-62
2023/01/17 08:41:26;;;;;;;2.60;0.77;;;32.00;82.80;;;;;;4996026;28;20429;-62
2023/01/17 08:43:53;;;;;;;1.10;0.60;;;30.90;85.10;;;;;;5001978;28;20062;-61
2023/01/17 08:46:21;;;;;;;3.08;0.90;;;30.00;86.50;;;;;;5004904;28;20030;-64
2023/01/17 08:48:51;;;;;;;2.13;0.88;;;29.60;87.60;;;;;;5005076;28;20037;-64
2023/01/17 08:51:18;;;;;;;2.90;0.60;;;28.80;90.00;;;;;;5003849;28;20049;-63
2023/01/17 08:53:47;;;;;;;2.88;0.85;;;28.30;90.60;;;;;;5002636;28;20223;-61
2023/01/17 08:56:14;;;;;;;3.00;0.77;;;28.00;91.20;;;;;;4998131;28;20117;-62
2023/01/17 08:58:41;;;;;;;2.63;1.17;;;27.70;91.70;;;;;;5001112;28;20527;-63
2023/01/17 09:01:08;;;;;;;1.58;0.55;;;27.40;91.90;;;;;;4991705;28;20084;-64
2023/01/17 09:03:35;;;;;;;2.15;0.80;;;27.20;92.60;;;;;;5000628;28;20105;-60
2023/01/17 09:06:11;;;;;;;2.80;1.10;;;27.10;93.10;;;;;;4995851;28;20029;-65
2023/01/17 09:08:38;;;;;;;4.50;1.02;;;26.60;93.70;;;;;;5004925;28;20084;-61
2023/01/17 09:11:08;;;;;;;1.17;0.70;;;26.40;94.10;;;;;;4986911;28;20030;-66
2023/01/17 09:13:35;;;;;;;3.05;1.42;;;26.30;94.80;;;;;;4998286;28;20038;-61
2023/01/17 09:16:06;;;;;;;6.35;2.78;;;26.30;95.20;;;;;;4989624;28;20038;-60
2023/01/17 09:18:33;;;;;;;3.67;1.40;;;26.00;95.80;;;;;;4994364;28;20381;-65
2023/01/17 09:21:10;;;;;;;3.17;1.00;;;25.90;96.20;;;;;;4991180;28;20035;-61
2023/01/17 09:23:36;;;;;;;2.22;1.08;;;25.80;96.50;;;;;;4993514;28;20041;-61
2023/01/17 09:26:04;;;;;;;4.05;0.95;;;25.70;96.50;;;;;;4998328;28;20499;-60
2023/01/17 09:28:30;;;;;;;4.50;1.40;;;25.60;97.10;;;;;;5002728;28;20023;-65
2023/01/17 09:30:57;;;;;;;4.93;1.10;;;25.40;97.40;;;;;;4998671;28;20045;-65
2023/01/17 09:33:24;;;;;;;2.65;0.95;;;25.40;97.80;;;;;;4997065;28;20545;-61
2023/01/17 09:35:51;;;;;;;4.00;0.93;;;25.20;98.20;;;;;;4998519;28;20026;-61
2023/01/17 09:38:20;;;;;;;2.97;0.98;;;24.90;98.50;;;;;;4996706;28;20033;-61
2023/01/17 09:40:48;;;;;;;3.60;1.13;;;24.90;98.90;;;;;;4992048;28;20037;-61
2023/01/17 09:43:56;;;;;;;4.55;1.33;;;24.70;99.80;;;;;;4994749;28;20160;-61
2023/01/17 09:46:28;;;;;;;3.65;1.10;;;24.50;99.90;;;;;;4996316;28;20046;-63
2023/01/17 09:49:33;;;;;;;3.10;1.23;;;24.40;99.90;;;;;;4993192;28;20568;-65
2023/01/17 09:52:01;;;;;;;4.35;1.85;;;24.30;99.90;;;;;;4994653;28;20498;-64
2023/01/17 09:54:36;;;;;;;3.10;1.55;;;24.20;99.90;;;;;;4994694;28;20693;-67
2023/01/17 09:57:18;;;;;;;3.47;1.48;;;24.00;99.90;;;;;;4991479;28;20128;-69
2023/01/17 09:59:45;;;;;;;4.97;0.95;;;23.80;99.90;;;;;;4991482;28;20034;-66
2023/01/17 10:02:33;;;;;;;4.63;1.15;;;23.70;99.90;;;;;;4993484;28;20042;-67
2023/01/17 10:05:23;;;;;;;5.47;3.20;;;23.60;99.90;;;;;;4995638;28;20140;-63
2023/01/17 10:08:11;;;;;;;3.88;1.65;;;23.50;99.90;;;;;;4992877;28;20034;-62
2023/01/17 10:11:00;;;;;;;4.47;1.65;;;23.40;99.90;;;;;;4989862;28;20124;-62
2023/01/17 10:13:35;;;;;;;2.30;0.75;;;23.40;99.90;;;;;;4989863;28;20080;-62
2023/01/17 10:16:20;;;;;;;3.33;1.13;;;23.50;99.90;;;;;;4994087;28;20113;-60
2023/01/17 10:19:18;;;;;;;3.00;0.88;;;23.50;99.90;;;;;;4996366;28;20125;-64
2023/01/17 10:22:09;;;;;;;3.38;0.77;;;23.40;99.90;;;;;;4995245;28;20045;-67
2023/01/17 10:25:19;;;;;;;2.65;0.93;;;23.40;99.90;;;;;;4996400;28;20030;-67
2023/01/17 10:28:02;;;;;;;1.80;0.68;;;23.40;99.90;;;;;;5000930;28;20033;-66
2023/01/17 10:30:41;;;;;;;4.53;1.10;;;23.30;99.90;;;;;;4996212;28;20192;-65
2023/01/17 10:33:37;;;;;;;4.38;1.10;;;23.30;99.90;;;;;;4995869;28;20034;-66
2023/01/17 10:36:22;;;;;;;2.33;0.93;;;23.40;99.90;;;;;;4994682;28;20032;-63
2023/01/17 10:38:59;;;;;;;4.00;0.73;;;23.30;99.90;;;;;;4993532;28;20030;-62
2023/01/17 10:41:34;;;;;;;3.75;1.10;;;23.30;99.90;;;;;;4997334;28;20034;-66
2023/01/17 10:44:38;;;;;;;4.30;0.85;;;23.30;99.90;;;;;;4996964;28;20353;-69
2023/01/17 10:47:19;;;;;;;4.90;1.10;;;23.40;99.90;;;;;;4998411;28;20515;-67
2023/01/17 10:49:53;;;;;;;3.10;0.98;;;23.40;99.90;;;;;;4995915;28;20026;-61
2023/01/17 10:52:23;;;;;;;2.70;0.85;;;23.30;99.90;;;;;;4994975;28;20038;-64
2023/01/17 10:55:12;;;;;;;3.00;0.88;;;23.30;99.90;;;;;;4995104;28;20448;-63
2023/01/17 10:57:44;;;;;;;3.08;0.85;;;23.20;99.90;;;;;;4998684;28;20021;-64
2023/01/17 11:00:24;;;;;;;1.38;0.77;;;23.30;99.90;;;;;;5003734;28;20439;-70
2023/01/17 11:02:52;;;;;;;2.88;0.88;;;23.10;99.90;;;;;;5005035;28;20022;-62
2023/01/17 11:05:25;;;;;;;5.00;1.10;;;23.20;99.90;;;;;;5003975;28;20018;-67
2023/01/17 11:07:58;;;;;;;2.20;1.10;;;23.10;99.90;;;;;;5004414;28;20386;-68
2023/01/17 11:10:40;;;;;;;1.83;0.60;;;23.10;99.90;;;;;;5011083;28;20018;-66
2023/01/17 11:13:20;;;;;;;3.60;1.00;;;23.20;99.90;;;;;;5004618;28;20453;-68
2023/01/17 11:16:02;;;;;;;5.18;0.70;;;23.20;99.90;;;;;;5009899;28;20530;-64
2023/01/17 11:18:37;;;;;;;2.08;0.95;;;23.10;99.90;;;;;;5007320;28;20029;-62
2023/01/17 11:21:20;;;;;;;2.85;1.00;;;23.10;99.90;;;;;;5004184;28;20488;-62
2023/01/17 11:23:53;;;;;;;3.42;0.85;;;23.20;99.90;;;;;;5008182;28;20057;-64
2023/01/17 11:26:32;;;;;;;3.90;1.58;;;23.10;99.90;;;;;;5007200;28;20107;-66
2023/01/17 11:29:27;;;;;;;2.28;0.68;;;22.90;99.90;;;;;;5005212;28;20037;-64
2023/01/17 11:31:57;;;;;;;3.10;0.93;;;22.90;99.90;;;;;;5002679;28;20057;-62
2023/01/17 11:34:28;;;;;;;3.08;1.08;;;22.80;99.90;;;;;;5002521;28;20040;-64
2023/01/17 11:37:18;;;;;;;2.75;1.00;;;22.90;99.90;;;;;;5000922;28;20034;-69
2023/01/17 11:39:48;;;;;;;2.65;0.73;;;22.80;99.90;;;;;;5004646;28;20151;-64
2023/01/17 11:42:36;;;;;;;1.35;0.77;;;22.80;99.90;;;;;;5003439;28;20243;-70
2023/01/17 11:45:26;;;;;;;3.00;0.95;;;22.80;99.90;;;;;;5001673;28;20026;-70
2023/01/17 11:48:11;;;;;;;3.90;1.00;;;22.80;99.90;;;;;;5008329;28;20041;-65
2023/01/17 11:50:58;;;;;;;1.10;0.60;;;22.70;99.90;;;;;;5002983;28;20022;-65
2023/01/17 11:53:46;;;;;;;3.08;1.00;;;22.70;99.90;;;;;;5004453;28;20029;-65
2023/01/17 11:56:31;;;;;;;2.55;0.70;;;22.60;99.90;;;;;;5000287;28;20074;-72
2023/01/17 11:59:30;;;;;;;2.22;0.90;;;22.50;99.90;;;;;;5005683;28;20030;-65
2023/01/17 12:01:57;;;;;;;3.58;0.90;;;22.40;99.90;;;;;;5000188;28;20053;-65
2023/01/17 12:04:59;;;;;;;3.28;0.90;;;22.30;99.90;;;;;;5002652;28;20038;-65
2023/01/17 12:07:29;;;;;;;1.25;0.70;;;22.20;99.90;;;;;;4980179;28;20125;-65
2023/01/17 12:10:32;;;;;;;3.75;1.10;;;22.30;99.90;;;;;;4983062;28;20125;-67
2023/01/17 12:16:29;;;;;;;2.25;1.00;;;22.20;99.90;;;;;;4906626;29;20047;-67
2023/01/17 12:19:23;;;;;;;2.20;1.17;;;22.00;99.90;;;;;;4909347;29;20104;-62
2023/01/17 12:22:23;;;;;;;4.22;1.10;;;21.80;99.90;;;;;;4914697;29;20055;-66
2023/01/17 12:25:13;;;;;;;3.10;1.05;;;21.80;99.90;;;;;;4909156;29;20044;-72
2023/01/17 12:28:08;;;;;;;2.50;0.70;;;21.70;99.90;;;;;;4915060;29;20040;-66
2023/01/17 12:30:41;;;;;;;1.90;0.75;;;21.80;99.90;;;;;;4909802;29;20044;-73
2023/01/17 12:33:20;;;;;;;3.28;1.15;;;21.80;99.90;;;;;;4909299;29;20071;-65
2023/01/17 12:36:16;;;;;;;2.42;0.98;;;21.70;99.90;;;;;;4902173;29;20062;-66
2023/01/17 12:38:46;;;;;;;3.55;0.98;;;21.70;99.90;;;;;;4907412;29;20530;-73
2023/01/17 12:41:22;;;;;;;3.15;1.15;;;21.70;99.90;;;;;;4919612;29;20175;-72
2023/01/17 12:43:58;;;;;;;3.67;1.40;;;21.70;99.90;;;;;;4926248;29;20043;-62
2023/01/17 12:46:39;;;;;;;3.28;1.42;;;21.50;99.90;;;;;;4941985;29;20027;-65
2023/01/17 12:49:15;;;;;;;4.05;1.45;;;21.40;99.90;;;;;;4956961;28;20125;-61
2023/01/17 12:51:45;;;;;;;3.70;1.30;;;21.40;99.90;;;;;;5005325;28;20057;-61
2023/01/17 12:54:30;;;;;;;3.28;1.25;;;21.40;99.90;;;;;;5007690;28;20473;-63
2023/01/17 12:57:15;;;;;;;5.03;1.70;;;21.30;99.90;;;;;;5003792;28;20025;-63
2023/01/17 13:00:24;;;;;;;3.08;1.30;;;21.30;99.90;;;;;;5005623;28;20030;-68
2023/01/17 13:03:15;;;;;;;4.57;1.10;;;21.30;99.90;;;;;;4933415;28;20041;-64
2023/01/17 13:05:50;;;;;;;3.03;1.30;;;21.30;99.90;;;;;;4944048;28;20023;-61
2023/01/17 13:08:45;;;;;;;3.53;1.60;;;21.20;99.90;;;;;;4951774;28;20034;-62
2023/01/17 13:11:24;;;;;;;2.83;1.48;;;21.00;99.90;;;;;;4942931;28;20051;-61
2023/01/17 13:13:52;;;;;;;1.88;0.95;;;20.90;99.90;;;;;;4948751;28;20134;-62
2023/01/17 13:16:36;;;;;;;4.38;1.27;;;20.80;99.90;;;;;;4947823;28;20031;-72
2023/01/17 13:19:14;;;;;;;2.10;1.10;;;20.70;99.90;;;;;;4944837;28;20047;-72
2023/01/17 13:21:41;;;;;;;3.85;1.38;;;20.70;99.90;;;;;;4946228;28;20503;-72
2023/01/17 13:24:11;;;;;;;4.15;1.50;;;20.60;99.90;;;;;;4947863;28;20031;-73
2023/01/17 13:26:55;;;;;;;3.20;1.05;;;20.60;99.90;;;;;;4942051;28;20043;-72
2023/01/17 13:29:57;;;;;;;3.08;1.10;;;20.50;99.90;;;;;;4963666;23;20016;-67
2023/01/17 13:32:51;;;;;;;2.00;1.10;;;20.40;99.90;;;;;;4958715;28;20042;-71
2023/01/17 13:35:21;;;;;;;5.35;1.88;;;20.30;99.90;;;;;;4964206;28;20125;-62
2023/01/17 13:38:28;;;;;;;2.72;0.95;;;20.40;99.90;;;;;;4964330;28;20548;-61
2023/01/17 13:41:16;;;;;;;3.33;1.05;;;20.40;99.90;;;;;;4958935;28;20506;-61
2023/01/17 13:46:53;;;;;;;3.83;1.25;;;20.20;99.90;;;;;;4946097;29;20449;-67
2023/01/17 13:49:38;;;;;;;4.18;1.00;;;20.10;99.90;;;;;;4942348;29;20062;-63
2023/01/17 13:52:11;;;;;;;1.70;1.00;;;20.10;99.90;;;;;;4947094;29;20046;-61
2023/01/17 13:54:51;;;;;;;2.50;1.00;;;20.10;99.90;;;;;;4944579;29;20126;-61
2023/01/17 13:59:52;;;;;;;2.95;1.00;;;20.10;99.90;;;;;;4947586;29;20027;-67
2023/01/17 14:02:38;;;;;;;2.75;1.38;;;20.10;99.90;;;;;;4947089;29;20053;-72
2023/01/17 14:05:21;;;;;;;3.08;1.17;;;20.00;99.90;;;;;;4947957;29;20294;-63
2023/01/17 14:07:51;;;;;;;1.75;0.90;;;20.00;99.90;;;;;;4946053;29;20505;-61
2023/01/17 14:10:25;;;;;;;2.00;1.10;;;19.90;99.90;;;;;;4979494;28;20536;-71
2023/01/17 14:12:53;;;;;;;3.75;1.13;;;20.00;99.90;;;;;;4980449;28;20138;-72
2023/01/17 14:15:24;;;;;;;2.17;1.10;;;20.00;99.90;;;;;;4987923;28;20101;-61
2023/01/17 14:17:57;;;;;;;3.53;1.63;;;20.10;99.90;;;;;;4984179;28;20121;-67
2023/01/17 14:20:39;;;;;;;3.13;1.05;;;20.00;99.90;;;;;;4999191;28;20029;-67
2023/01/17 14:23:30;;;;;;;3.83;0.90;;;19.90;99.90;;;;;;5027847;28;20060;-63
2023/01/17 14:25:59;;;;;;;4.57;1.60;;;19.90;99.90;;;;;;5026338;28;20017;-72
2023/01/17 14:28:28;;;;;;;6.22;1.23;;;19.90;99.90;;;;;;5023804;28;20017;-72
2023/01/17 14:30:56;;;;;;;4.68;1.20;;;19.90;99.90;;;;;;5028379;28;20040;-61
2023/01/17 14:33:33;;;;;;;2.50;1.20;;;20.00;99.90;;;;;;5024753;28;20025;-67
2023/01/17 14:36:13;;;;;;;6.90;1.60;;;20.00;99.90;;;;;;5032905;28;20025;-63
2023/01/17 14:38:44;;;;;;;3.63;1.05;;;20.10;99.90;;;;;;5033471;28;20079;-67
2023/01/17 14:41:24;;;;;;;4.85;1.20;;;20.10;99.90;;;;;;5032583;28;20503;-67
2023/01/17 14:43:51;;;;;;;4.22;1.40;;;20.20;99.90;;;;;;5026028;28;20056;-61
2023/01/17 14:46:21;;;;;;;5.90;2.10;;;20.30;99.90;;;;;;5032186;28;20029;-68
2023/01/17 14:48:48;;;;;;;4.90;1.63;;;20.30;99.90;;;;;;5033494;28;20109;-63
2023/01/17 14:51:21;;;;;;;3.17;1.40;;;20.20;99.90;;;;;;5032875;28;20468;-63